Time;durP1;ratioP1;P1;durP2;ratioP2;P2;SDS_P1;SDS_P2;PMS_P1;PMS_P2;Temp;Humidity;BMP_temperature;BMP_pressure;BME280_temperature;BME280_humidity;BME280_pressure;Samples;Min_cycle;Max_cycle;Signal;HPM_P1;HPM_P2
2022/01/24 00:00:32;;;;;;;9.33;6.57;;;;;;;;;;5013899;28;20251;-65
2022/01/24 00:02:58;;;;;;;9.83;7.10;;;;;;;;;;5012983;28;20650;-65
2022/01/24 00:05:24;;;;;;;11.30;8.00;;;;;;;;;;5014606;28;20183;-65
2022/01/24 00:07:50;;;;;;;18.30;13.17;;;;;;;;;;5014126;28;20182;-66
2022/01/24 00:10:20;;;;;;;17.30;11.40;;;;;;;;;;5013771;28;20180;-66
2022/01/24 00:18:12;;;;;;;6.77;6.03;;;;;;;;;;5013757;28;20160;-66
2022/01/24 00:28:51;;;;;;;8.50;7.03;;;;;;;;;;5013825;28;20194;-66
2022/01/24 00:31:18;;;;;;;6.90;5.80;;;;;;;;;;5013455;28;20648;-67
2022/01/24 00:33:43;;;;;;;6.60;5.23;;;;;;;;;;5013939;28;20215;-67
2022/01/24 00:36:09;;;;;;;6.33;5.30;;;;;;;;;;5013491;28;20659;-67
2022/01/24 00:38:35;;;;;;;6.40;5.73;;;;;;;;;;5013466;28;20698;-66
2022/01/24 00:41:01;;;;;;;7.40;5.63;;;;;;;;;;5013540;28;20687;-67
2022/01/24 00:45:59;;;;;;;10.47;6.27;;;;;;;;;;5013345;28;20653;-67
2022/01/24 00:48:51;;;;;;;8.70;7.13;;;;;;;;;;5014963;28;20196;-66
2022/01/24 00:54:42;;;;;;;12.37;9.70;;;;;;;;;;5017677;28;20214;-66
2022/01/24 00:56:47;;;;;;;11.90;9.20;;;;;;;;;;5017564;28;20191;-66
2022/01/24 00:59:13;;;;;;;10.17;7.77;;;;;;;;;;5016259;28;20175;-66
2022/01/24 01:01:39;;;;;;;9.90;7.40;;;;;;;;;;5017492;28;20168;-66
2022/01/24 01:04:05;;;;;;;9.23;7.00;;;;;;;;;;5017297;28;20207;-66
2022/01/24 01:06:31;;;;;;;11.13;7.03;;;;;;;;;;5017366;28;20627;-66
2022/01/24 01:19:57;;;;;;;8.53;6.80;;;;;;;;;;5017529;28;20191;-66
2022/01/24 01:22:23;;;;;;;9.87;7.13;;;;;;;;;;5015650;28;20191;-66
2022/01/24 01:24:52;;;;;;;9.17;6.60;;;;;;;;;;5015508;28;20434;-66
2022/01/24 01:27:25;;;;;;;24.57;15.20;;;;;;;;;;5017093;28;20214;-66
2022/01/24 01:30:00;;;;;;;14.03;9.47;;;;;;;;;;5017312;28;20164;-66
2022/01/24 01:32:43;;;;;;;14.00;9.90;;;;;;;;;;5016998;28;20446;-66
2022/01/24 01:35:32;;;;;;;9.13;6.83;;;;;;;;;;5016828;28;20302;-66
2022/01/24 01:56:51;;;;;;;10.67;7.93;;;;;;;;;;5016830;28;20565;-66
2022/01/24 01:59:17;;;;;;;11.60;7.90;;;;;;;;;;5016123;28;20176;-66
2022/01/24 02:01:43;;;;;;;8.23;6.00;;;;;;;;;;5016251;28;20258;-66
2022/01/24 02:04:09;;;;;;;8.03;6.77;;;;;;;;;;5015729;28;20219;-67
2022/01/24 02:06:35;;;;;;;19.13;12.00;;;;;;;;;;5016481;28;20206;-67
2022/01/24 02:09:06;;;;;;;15.33;11.43;;;;;;;;;;5015958;28;20664;-67
2022/01/24 02:11:32;;;;;;;9.13;8.13;;;;;;;;;;5015783;28;20311;-66
2022/01/24 02:14:03;;;;;;;10.13;7.80;;;;;;;;;;5015707;28;20234;-66
2022/01/24 02:16:56;;;;;;;15.43;10.73;;;;;;;;;;5014570;28;20168;-66
2022/01/24 02:19:28;;;;;;;10.27;7.90;;;;;;;;;;5015220;28;20219;-66
2022/01/24 02:24:32;;;;;;;6.70;5.27;;;;;;;;;;5015855;28;20286;-67
2022/01/24 02:26:59;;;;;;;8.63;6.50;;;;;;;;;;5015811;28;20255;-66
2022/01/24 02:29:46;;;;;;;8.17;6.40;;;;;;;;;;5015819;28;20172;-67
2022/01/24 02:32:12;;;;;;;9.00;6.03;;;;;;;;;;5015397;28;20191;-66
2022/01/24 02:34:41;;;;;;;5.50;4.10;;;;;;;;;;5016699;28;20575;-66
2022/01/24 02:37:09;;;;;;;4.37;3.90;;;;;;;;;;5014050;28;20563;-67
2022/01/24 02:39:46;;;;;;;4.20;3.80;;;;;;;;;;5014089;28;20184;-67
2022/01/24 02:50:43;;;;;;;6.00;4.50;;;;;;;;;;5015421;28;20238;-66
2022/01/24 02:53:09;;;;;;;4.43;4.03;;;;;;;;;;5015151;28;20211;-65
2022/01/24 02:55:39;;;;;;;5.33;4.17;;;;;;;;;;5015201;28;20183;-66
2022/01/24 02:58:05;;;;;;;4.47;4.03;;;;;;;;;;5014953;28;20203;-66
2022/01/24 03:00:31;;;;;;;4.60;4.00;;;;;;;;;;5013622;28;20187;-65
2022/01/24 03:02:58;;;;;;;7.47;4.40;;;;;;;;;;5015212;28;20215;-65
2022/01/24 03:05:24;;;;;;;6.03;4.27;;;;;;;;;;5015605;28;20176;-65
2022/01/24 03:07:50;;;;;;;8.90;5.57;;;;;;;;;;5014930;28;20233;-65
2022/01/24 03:10:26;;;;;;;7.83;6.03;;;;;;;;;;5015059;28;20176;-65
2022/01/24 03:13:09;;;;;;;4.97;3.67;;;;;;;;;;5014778;28;20206;-65
2022/01/24 03:15:35;;;;;;;6.10;5.23;;;;;;;;;;5013497;28;20227;-66
2022/01/24 03:18:01;;;;;;;4.43;4.03;;;;;;;;;;5014708;28;20676;-66
2022/01/24 03:20:27;;;;;;;4.57;3.83;;;;;;;;;;5014852;28;20182;-68
2022/01/24 03:22:53;;;;;;;5.73;4.53;;;;;;;;;;5013227;28;20239;-67
2022/01/24 03:25:19;;;;;;;8.97;7.87;;;;;;;;;;5014456;28;20191;-65
2022/01/24 03:27:45;;;;;;;4.33;3.93;;;;;;;;;;5014907;28;20187;-66
2022/01/24 03:30:11;;;;;;;4.27;3.87;;;;;;;;;;5014642;28;20214;-66
2022/01/24 03:32:37;;;;;;;4.73;4.20;;;;;;;;;;5014644;28;20286;-68
2022/01/24 03:35:07;;;;;;;4.10;3.60;;;;;;;;;;5014301;28;20267;-68
2022/01/24 03:37:33;;;;;;;4.97;4.47;;;;;;;;;;5014210;28;20551;-66
2022/01/24 03:39:59;;;;;;;7.13;4.53;;;;;;;;;;5014356;28;20176;-66
2022/01/24 03:42:25;;;;;;;4.40;4.00;;;;;;;;;;5012869;28;20183;-65
2022/01/24 03:44:56;;;;;;;6.03;5.10;;;;;;;;;;5014522;28;20601;-65
2022/01/24 03:50:00;;;;;;;4.40;4.00;;;;;;;;;;5014564;28;20175;-65
2022/01/24 03:52:30;;;;;;;3.97;3.57;;;;;;;;;;5014472;28;20296;-65
2022/01/24 03:54:56;;;;;;;5.27;4.10;;;;;;;;;;5013832;28;20568;-65
2022/01/24 03:57:21;;;;;;;5.20;4.40;;;;;;;;;;5012597;28;20187;-65
2022/01/24 03:59:48;;;;;;;4.83;4.33;;;;;;;;;;5013833;28;20683;-66
2022/01/24 04:02:15;;;;;;;4.57;4.03;;;;;;;;;;5013848;28;20187;-65
2022/01/24 04:04:41;;;;;;;6.30;3.93;;;;;;;;;;5012387;28;20222;-65
2022/01/24 04:07:07;;;;;;;3.40;3.10;;;;;;;;;;5012527;28;20183;-65
2022/01/24 04:09:34;;;;;;;4.20;3.20;;;;;;;;;;5012559;28;20176;-65
2022/01/24 04:12:01;;;;;;;4.27;3.20;;;;;;;;;;5012333;28;20180;-65
2022/01/24 04:14:41;;;;;;;4.13;3.63;;;;;;;;;;5013732;28;20278;-68
2022/01/24 04:22:24;;;;;;;4.13;3.60;;;;;;;;;;5013251;28;20169;-66
2022/01/24 04:24:58;;;;;;;5.83;3.80;;;;;;;;;;5013388;28;20564;-68
2022/01/24 04:27:24;;;;;;;4.37;3.97;;;;;;;;;;5013855;28;20558;-65
2022/01/24 04:29:50;;;;;;;5.33;4.83;;;;;;;;;;5014000;28;20180;-66
2022/01/24 04:32:16;;;;;;;8.10;4.93;;;;;;;;;;5013416;28;20578;-65
2022/01/24 04:34:42;;;;;;;5.73;4.40;;;;;;;;;;5012036;28;20192;-65
2022/01/24 04:37:08;;;;;;;6.03;5.30;;;;;;;;;;5013386;28;20172;-65
2022/01/24 04:39:34;;;;;;;6.27;5.13;;;;;;;;;;5013501;28;20191;-65
2022/01/24 04:42:08;;;;;;;4.20;3.80;;;;;;;;;;5012430;28;20541;-65
2022/01/24 04:47:26;;;;;;;4.03;3.07;;;;;;;;;;5013635;28;20164;-65
2022/01/24 04:52:53;;;;;;;3.53;3.10;;;;;;;;;;5013645;28;20210;-65
2022/01/24 04:55:19;;;;;;;3.10;2.80;;;;;;;;;;5014327;28;20182;-65
2022/01/24 04:57:46;;;;;;;4.43;3.20;;;;;;;;;;5016539;28;20264;-65
2022/01/24 05:00:12;;;;;;;4.00;3.10;;;;;;;;;;5015767;28;20225;-65
2022/01/24 05:02:39;;;;;;;3.80;3.00;;;;;;;;;;5016436;28;20263;-67
2022/01/24 05:05:06;;;;;;;4.17;2.90;;;;;;;;;;5014450;28;20168;-68
2022/01/24 05:07:32;;;;;;;3.77;2.97;;;;;;;;;;5013512;28;20176;-65
2022/01/24 05:25:54;;;;;;;3.37;3.07;;;;;;;;;;5013608;28;20192;-67
2022/01/24 05:28:20;;;;;;;3.63;2.90;;;;;;;;;;5013429;28;20227;-67
2022/01/24 05:30:46;;;;;;;4.03;3.63;;;;;;;;;;5013352;28;20180;-67
2022/01/24 05:33:12;;;;;;;6.57;3.90;;;;;;;;;;5014817;28;20270;-65
2022/01/24 05:35:38;;;;;;;3.83;3.33;;;;;;;;;;5017727;28;20543;-65
2022/01/24 05:38:04;;;;;;;4.33;3.13;;;;;;;;;;5017149;28;20184;-67
2022/01/24 05:40:31;;;;;;;4.67;3.40;;;;;;;;;;5017086;28;20183;-67
2022/01/24 05:42:57;;;;;;;3.20;2.90;;;;;;;;;;5015464;28;20578;-65
2022/01/24 05:45:23;;;;;;;4.13;2.60;;;;;;;;;;5016741;28;20184;-65
2022/01/24 05:47:49;;;;;;;3.03;2.70;;;;;;;;;;5016399;28;20211;-65
2022/01/24 05:50:15;;;;;;;7.17;3.10;;;;;;;;;;5015078;28;20265;-64
2022/01/24 05:52:41;;;;;;;2.90;2.60;;;;;;;;;;5016707;28;20208;-64
2022/01/24 05:55:08;;;;;;;3.17;2.87;;;;;;;;;;5016585;28;20176;-65
2022/01/24 05:57:34;;;;;;;3.40;3.10;;;;;;;;;;5014890;28;20613;-65
2022/01/24 06:00:00;;;;;;;6.50;3.23;;;;;;;;;;5016234;28;20176;-65
2022/01/24 06:02:26;;;;;;;3.40;3.10;;;;;;;;;;5014700;28;20192;-65
2022/01/24 06:04:52;;;;;;;3.53;2.80;;;;;;;;;;5014999;28;20234;-65
2022/01/24 06:07:18;;;;;;;4.70;3.30;;;;;;;;;;5016371;28;20279;-65
2022/01/24 06:09:45;;;;;;;4.00;3.17;;;;;;;;;;5016102;28;20187;-65
2022/01/24 06:12:11;;;;;;;3.20;2.90;;;;;;;;;;5014416;28;20219;-65
2022/01/24 06:14:37;;;;;;;3.43;3.10;;;;;;;;;;5015843;28;20198;-65
2022/01/24 06:17:03;;;;;;;3.10;2.80;;;;;;;;;;5016278;28;20180;-65
2022/01/24 06:19:29;;;;;;;3.30;3.00;;;;;;;;;;5015893;28;20183;-65
2022/01/24 06:21:55;;;;;;;3.43;3.13;;;;;;;;;;5016661;28;20255;-65
2022/01/24 06:24:21;;;;;;;3.33;3.03;;;;;;;;;;5016552;28;20200;-66
2022/01/24 06:26:47;;;;;;;4.30;3.40;;;;;;;;;;5014360;28;20180;-66
2022/01/24 06:29:13;;;;;;;4.87;3.10;;;;;;;;;;5015511;28;20173;-66
2022/01/24 06:31:39;;;;;;;4.43;3.30;;;;;;;;;;5014237;28;20214;-66
2022/01/24 06:34:06;;;;;;;3.37;3.07;;;;;;;;;;5015248;28;20239;-66
2022/01/24 06:36:32;;;;;;;3.40;3.10;;;;;;;;;;5015596;28;20210;-66
2022/01/24 06:39:00;;;;;;;3.50;3.13;;;;;;;;;;5015267;28;20183;-66
2022/01/24 06:41:31;;;;;;;4.77;3.40;;;;;;;;;;5014014;28;20203;-67
2022/01/24 06:43:57;;;;;;;3.93;3.53;;;;;;;;;;5015338;28;20203;-66
2022/01/24 06:46:23;;;;;;;5.27;3.90;;;;;;;;;;5013022;28;20211;-66
2022/01/24 06:48:49;;;;;;;3.37;3.07;;;;;;;;;;5015103;28;20254;-66
2022/01/24 06:51:15;;;;;;;7.73;6.40;;;;;;;;;;5014769;28;20188;-66
2022/01/24 06:53:42;;;;;;;7.33;5.07;;;;;;;;;;5013675;28;20215;-66
2022/01/24 06:56:08;;;;;;;9.13;5.67;;;;;;;;;;5015045;28;20624;-66
2022/01/24 06:58:34;;;;;;;8.87;4.53;;;;;;;;;;5015025;28;20258;-66
2022/01/24 07:01:01;;;;;;;6.07;3.80;;;;;;;;;;5014911;28;20176;-66
2022/01/24 07:03:27;;;;;;;8.70;5.93;;;;;;;;;;5015146;28;20365;-66
2022/01/24 07:05:53;;;;;;;10.43;7.07;;;;;;;;;;5013553;28;20218;-66
2022/01/24 07:08:19;;;;;;;6.27;4.63;;;;;;;;;;5014780;28;20187;-66
2022/01/24 07:10:45;;;;;;;5.60;4.67;;;;;;;;;;5015191;28;20183;-66
2022/01/24 07:13:11;;;;;;;9.83;5.70;;;;;;;;;;5013454;28;20222;-66
2022/01/24 07:15:46;;;;;;;11.67;8.10;;;;;;;;;;5013857;28;20552;-66
2022/01/24 07:20:53;;;;;;;15.17;9.27;;;;;;;;;;5015190;28;20172;-66
2022/01/24 07:23:19;;;;;;;9.43;6.77;;;;;;;;;;5013280;28;20577;-66
2022/01/24 07:25:46;;;;;;;16.63;9.50;;;;;;;;;;5013307;28;20210;-66
2022/01/24 07:28:12;;;;;;;14.00;7.50;;;;;;;;;;5014728;28;20234;-66
2022/01/24 07:30:38;;;;;;;12.07;6.93;;;;;;;;;;5014718;28;20264;-66
2022/01/24 07:33:04;;;;;;;7.83;5.60;;;;;;;;;;5012997;28;20309;-66
2022/01/24 07:35:30;;;;;;;6.20;4.53;;;;;;;;;;5014392;28;20230;-66
2022/01/24 07:37:56;;;;;;;3.93;3.53;;;;;;;;;;5013012;28;20640;-66
2022/01/24 07:40:22;;;;;;;6.80;4.13;;;;;;;;;;5012957;28;20211;-66
2022/01/24 07:45:18;;;;;;;5.23;4.60;;;;;;;;;;5014486;28;20530;-66
2022/01/24 07:47:47;;;;;;;3.97;3.67;;;;;;;;;;5014341;28;20180;-66
2022/01/24 07:50:13;;;;;;;5.73;3.90;;;;;;;;;;5014126;28;20204;-66
2022/01/24 07:52:38;;;;;;;5.00;3.83;;;;;;;;;;5013914;28;20239;-66
2022/01/24 07:55:05;;;;;;;4.53;4.13;;;;;;;;;;5012801;28;20184;-66
2022/01/24 07:57:31;;;;;;;3.93;3.53;;;;;;;;;;5014264;28;20188;-67
2022/01/24 07:59:57;;;;;;;5.43;4.40;;;;;;;;;;5012742;28;20286;-66
2022/01/24 08:02:23;;;;;;;7.83;5.20;;;;;;;;;;5014045;28;20176;-66
2022/01/24 08:04:48;;;;;;;5.17;4.70;;;;;;;;;;5014284;28;20226;-67
2022/01/24 08:07:14;;;;;;;9.50;5.57;;;;;;;;;;5012527;28;20184;-68
2022/01/24 08:09:40;;;;;;;10.50;5.40;;;;;;;;;;5013726;28;20187;-67
2022/01/24 08:12:06;;;;;;;8.57;5.13;;;;;;;;;;5012386;28;20184;-68
2022/01/24 08:14:32;;;;;;;8.33;5.13;;;;;;;;;;5013680;28;20342;-67
2022/01/24 08:17:00;;;;;;;8.87;5.60;;;;;;;;;;5013717;28;20208;-68
2022/01/24 08:19:26;;;;;;;7.63;5.23;;;;;;;;;;5013752;28;20168;-67
2022/01/24 08:21:52;;;;;;;7.50;5.10;;;;;;;;;;5013429;28;20234;-67
2022/01/24 08:24:18;;;;;;;9.37;5.33;;;;;;;;;;5013486;28;20294;-67
2022/01/24 08:26:44;;;;;;;10.83;5.40;;;;;;;;;;5012386;28;20176;-67
2022/01/24 08:29:10;;;;;;;10.53;6.17;;;;;;;;;;5013506;28;20267;-67
2022/01/24 08:31:37;;;;;;;7.87;5.03;;;;;;;;;;5013800;28;20190;-67
2022/01/24 08:34:03;;;;;;;7.97;5.20;;;;;;;;;;5012131;28;20212;-67
2022/01/24 08:36:29;;;;;;;7.90;5.10;;;;;;;;;;5012221;28;20206;-67
2022/01/24 08:39:01;;;;;;;5.33;4.77;;;;;;;;;;5013663;28;20191;-67
2022/01/24 08:41:39;;;;;;;5.03;4.53;;;;;;;;;;5013810;28;20179;-67
2022/01/24 08:45:43;;;;;;;8.57;5.83;;;;;;;;;;5013959;28;20549;-67
2022/01/24 08:46:57;;;;;;;11.10;6.40;;;;;;;;;;5011255;28;20192;-67
2022/01/24 08:49:23;;;;;;;10.37;5.63;;;;;;;;;;5011931;28;20648;-68
2022/01/24 08:54:22;;;;;;;5.23;4.00;;;;;;;;;;5044759;22;20296;-65
2022/01/24 08:56:48;;;;;;;6.17;4.13;;;;;;;;;;5021301;28;20218;-65
2022/01/24 08:59:14;;;;;;;4.00;3.47;;;;;;;;;;5021236;28;20179;-66
2022/01/24 09:01:40;;;;;;;4.87;4.00;;;;;;;;;;5019645;28;20186;-65
2022/01/24 09:04:06;;;;;;;3.97;3.57;;;;;;;;;;5019666;28;20206;-65
2022/01/24 09:06:32;;;;;;;5.23;4.03;;;;;;;;;;5018675;28;20252;-64
2022/01/24 09:09:03;;;;;;;4.33;3.60;;;;;;;;;;5021156;28;20180;-65
2022/01/24 09:11:31;;;;;;;5.07;3.87;;;;;;;;;;5023596;28;20176;-65
2022/01/24 09:13:57;;;;;;;3.90;3.47;;;;;;;;;;5021607;28;20219;-65
2022/01/24 09:16:24;;;;;;;4.60;3.97;;;;;;;;;;5022224;28;20643;-66
2022/01/24 09:18:50;;;;;;;5.37;3.10;;;;;;;;;;5021944;28;20688;-65
2022/01/24 09:21:16;;;;;;;4.47;3.90;;;;;;;;;;5022382;28;20172;-65
2022/01/24 09:23:42;;;;;;;5.27;4.00;;;;;;;;;;5023398;28;20203;-66
2022/01/24 09:26:08;;;;;;;5.70;5.00;;;;;;;;;;5024113;28;20184;-66
2022/01/24 09:28:34;;;;;;;3.90;3.50;;;;;;;;;;5025810;28;20235;-65
2022/01/24 09:31:00;;;;;;;5.43;2.90;;;;;;;;;;5026300;28;20660;-64
2022/01/24 09:33:27;;;;;;;5.03;4.10;;;;;;;;;;5025754;28;20226;-66
2022/01/24 09:35:58;;;;;;;8.63;5.37;;;;;;;;;;5027675;28;20231;-65
2022/01/24 09:38:25;;;;;;;4.13;3.50;;;;;;;;;;5027334;28;20156;-65
2022/01/24 09:40:51;;;;;;;5.37;3.90;;;;;;;;;;5027006;28;20175;-66
2022/01/24 09:43:17;;;;;;;4.10;3.80;;;;;;;;;;5026055;28;20200;-66
2022/01/24 09:45:43;;;;;;;7.03;4.50;;;;;;;;;;5025006;28;20241;-65
2022/01/24 09:48:10;;;;;;;5.27;3.97;;;;;;;;;;5025819;28;20179;-65
2022/01/24 09:50:36;;;;;;;5.70;3.80;;;;;;;;;;5025034;28;20187;-66
2022/01/24 09:53:02;;;;;;;4.90;4.00;;;;;;;;;;5025615;28;20220;-66
2022/01/24 09:55:28;;;;;;;7.40;3.80;;;;;;;;;;5024833;28;20272;-65
2022/01/24 09:57:54;;;;;;;7.40;5.00;;;;;;;;;;5024993;28;20176;-66
2022/01/24 10:00:22;;;;;;;4.50;4.10;;;;;;;;;;5025452;28;20172;-66
2022/01/24 10:02:49;;;;;;;5.40;4.43;;;;;;;;;;5025917;28;20605;-65
2022/01/24 10:05:34;;;;;;;6.10;4.83;;;;;;;;;;5025810;28;20264;-65
2022/01/24 10:08:02;;;;;;;4.17;3.77;;;;;;;;;;5025036;28;20648;-65
2022/01/24 10:10:30;;;;;;;4.27;3.87;;;;;;;;;;5024309;28;20202;-66
2022/01/24 10:18:09;;;;;;;5.40;3.97;;;;;;;;;;5024994;28;20170;-65
2022/01/24 10:20:40;;;;;;;5.47;3.97;;;;;;;;;;5024734;28;20176;-65
2022/01/24 10:23:06;;;;;;;4.33;3.90;;;;;;;;;;5023821;28;20199;-65
2022/01/24 10:25:32;;;;;;;5.50;4.33;;;;;;;;;;5022795;28;20180;-66
2022/01/24 10:28:03;;;;;;;5.80;4.27;;;;;;;;;;5024514;28;20187;-64
2022/01/24 10:30:29;;;;;;;4.87;3.90;;;;;;;;;;5023003;28;20175;-66
2022/01/24 10:32:56;;;;;;;5.73;3.77;;;;;;;;;;5022806;28;20208;-65
2022/01/24 10:35:22;;;;;;;4.70;3.90;;;;;;;;;;5022341;28;20231;-65
2022/01/24 10:37:51;;;;;;;5.40;3.83;;;;;;;;;;5020708;28;20176;-64
2022/01/24 10:40:34;;;;;;;4.63;3.33;;;;;;;;;;5023151;28;20208;-66
2022/01/24 10:43:17;;;;;;;4.47;3.50;;;;;;;;;;5022354;28;20242;-65
2022/01/24 10:45:44;;;;;;;5.53;3.80;;;;;;;;;;5024053;28;20175;-66
2022/01/24 10:48:10;;;;;;;4.20;3.80;;;;;;;;;;5022482;28;20683;-66
2022/01/24 10:50:36;;;;;;;5.47;4.20;;;;;;;;;;5022166;28;20184;-65
2022/01/24 10:53:15;;;;;;;6.23;4.30;;;;;;;;;;5023004;28;20211;-65
2022/01/24 10:55:43;;;;;;;5.63;3.80;;;;;;;;;;5023961;28;20176;-66
2022/01/24 10:58:15;;;;;;;3.87;3.47;;;;;;;;;;5021817;28;20644;-64
2022/01/24 11:00:41;;;;;;;3.63;3.33;;;;;;;;;;5023803;28;20191;-65
2022/01/24 11:03:16;;;;;;;5.20;3.73;;;;;;;;;;5023127;28;20215;-65
2022/01/24 11:05:43;;;;;;;4.20;3.60;;;;;;;;;;5020744;28;20655;-65
2022/01/24 11:08:10;;;;;;;5.67;4.33;;;;;;;;;;5023027;28;20172;-66
2022/01/24 11:10:37;;;;;;;9.03;4.17;;;;;;;;;;5020923;28;20251;-65
2022/01/24 11:13:05;;;;;;;6.90;4.47;;;;;;;;;;5021151;28;20242;-64
2022/01/24 11:15:31;;;;;;;5.93;3.87;;;;;;;;;;5021601;28;20176;-66
2022/01/24 11:17:58;;;;;;;5.10;4.40;;;;;;;;;;5021681;28;20303;-66
2022/01/24 11:20:30;;;;;;;5.70;3.60;;;;;;;;;;5022492;28;20536;-66
2022/01/24 11:23:01;;;;;;;7.40;4.90;;;;;;;;;;5023308;28;20204;-65
2022/01/24 11:25:29;;;;;;;5.47;4.17;;;;;;;;;;5022032;28;20565;-66
2022/01/24 11:27:55;;;;;;;4.73;4.27;;;;;;;;;;5021951;28;20208;-64
2022/01/24 11:30:27;;;;;;;5.33;3.70;;;;;;;;;;5021684;28;20214;-65
2022/01/24 11:32:58;;;;;;;4.27;3.87;;;;;;;;;;5023462;28;20299;-65
2022/01/24 11:35:31;;;;;;;4.63;4.23;;;;;;;;;;5021505;28;20252;-65
2022/01/24 11:37:58;;;;;;;7.13;4.67;;;;;;;;;;5019997;28;20179;-65
2022/01/24 11:40:24;;;;;;;5.33;4.77;;;;;;;;;;5018846;28;20179;-65
2022/01/24 11:42:51;;;;;;;5.77;4.27;;;;;;;;;;5020916;28;20260;-65
2022/01/24 11:45:19;;;;;;;5.70;4.53;;;;;;;;;;5021825;28;20198;-68
2022/01/24 11:47:46;;;;;;;5.20;4.43;;;;;;;;;;5022284;28;20267;-67
2022/01/24 11:50:26;;;;;;;5.30;4.77;;;;;;;;;;5022014;28;20210;-66
2022/01/24 11:52:52;;;;;;;7.23;5.60;;;;;;;;;;5022016;28;20223;-66
2022/01/24 11:55:31;;;;;;;7.20;5.57;;;;;;;;;;5022893;28;20180;-66
2022/01/24 11:58:07;;;;;;;9.83;5.00;;;;;;;;;;5022490;28;20156;-65
2022/01/24 12:00:39;;;;;;;8.50;4.83;;;;;;;;;;5020537;28;20618;-65
2022/01/24 12:03:23;;;;;;;6.07;4.50;;;;;;;;;;5022695;28;20199;-65
2022/01/24 12:05:51;;;;;;;4.93;4.43;;;;;;;;;;5021201;28;20243;-66
2022/01/24 12:08:34;;;;;;;5.80;4.97;;;;;;;;;;5022718;28;20176;-65
2022/01/24 12:11:12;;;;;;;5.27;4.70;;;;;;;;;;5022433;28;20713;-63
2022/01/24 12:13:46;;;;;;;5.47;4.87;;;;;;;;;;5021156;28;20291;-64
2022/01/24 12:16:13;;;;;;;6.20;5.43;;;;;;;;;;5022741;28;20194;-63
2022/01/24 12:18:39;;;;;;;5.70;4.60;;;;;;;;;;5021755;28;20180;-65
2022/01/24 12:21:09;;;;;;;6.13;4.80;;;;;;;;;;5021697;28;20595;-64
2022/01/24 12:23:45;;;;;;;7.80;5.03;;;;;;;;;;5021280;28;20210;-65
2022/01/24 12:26:14;;;;;;;6.23;5.17;;;;;;;;;;5022935;28;20187;-64
2022/01/24 12:28:43;;;;;;;5.70;4.73;;;;;;;;;;5021069;28;20184;-64
2022/01/24 12:31:10;;;;;;;6.00;5.40;;;;;;;;;;5019901;28;20552;-64
2022/01/24 12:33:36;;;;;;;6.07;5.40;;;;;;;;;;5019927;28;20195;-65
2022/01/24 12:36:04;;;;;;;5.10;4.60;;;;;;;;;;5021375;28;20187;-65
2022/01/24 12:38:43;;;;;;;7.73;5.30;;;;;;;;;;5022572;28;20176;-65
2022/01/24 12:41:16;;;;;;;7.67;5.43;;;;;;;;;;5022239;28;20236;-64
2022/01/24 12:44:11;;;;;;;5.93;4.70;;;;;;;;;;5023422;28;20213;-65
2022/01/24 12:46:37;;;;;;;5.97;4.83;;;;;;;;;;5026919;28;20297;-65
2022/01/24 12:49:05;;;;;;;6.53;4.70;;;;;;;;;;5024687;28;20184;-64
2022/01/24 12:51:33;;;;;;;8.67;5.97;;;;;;;;;;5026093;28;20266;-64
2022/01/24 12:54:02;;;;;;;9.30;6.33;;;;;;;;;;5025883;28;20258;-64
2022/01/24 12:56:29;;;;;;;5.17;4.67;;;;;;;;;;5026233;28;20182;-63
2022/01/24 12:58:55;;;;;;;9.37;6.90;;;;;;;;;;5024864;28;20675;-65
2022/01/24 13:01:32;;;;;;;16.33;10.47;;;;;;;;;;5026753;28;20713;-65
2022/01/24 13:04:08;;;;;;;14.67;12.63;;;;;;;;;;5026421;28;20546;-64
2022/01/24 13:06:35;;;;;;;28.03;20.83;;;;;;;;;;5025520;28;20167;-65
2022/01/24 13:09:01;;;;;;;15.40;12.80;;;;;;;;;;5024987;28;20194;-65
2022/01/24 13:11:28;;;;;;;16.00;9.40;;;;;;;;;;5025860;28;20203;-65
2022/01/24 13:14:15;;;;;;;7.00;6.03;;;;;;;;;;5025662;28;20683;-65
2022/01/24 13:22:31;;;;;;;12.00;9.10;;;;;;;;;;5025832;28;20241;-66
2022/01/24 13:25:02;;;;;;;19.07;11.63;;;;;;;;;;5024277;28;20231;-63
2022/01/24 13:27:38;;;;;;;17.37;14.50;;;;;;;;;;5023163;28;20310;-64
2022/01/24 13:30:08;;;;;;;11.53;10.17;;;;;;;;;;5021919;28;20652;-66
2022/01/24 13:32:47;;;;;;;11.47;8.70;;;;;;;;;;5019926;28;20744;-65
2022/01/24 13:35:14;;;;;;;12.60;9.47;;;;;;;;;;5019281;28;20183;-64
2022/01/24 13:37:40;;;;;;;9.17;6.80;;;;;;;;;;5019890;28;20191;-65
2022/01/24 13:40:07;;;;;;;8.27;6.87;;;;;;;;;;5018944;28;20179;-66
2022/01/24 13:42:36;;;;;;;9.87;7.80;;;;;;;;;;5021046;28;20200;-65
2022/01/24 13:45:02;;;;;;;6.23;5.23;;;;;;;;;;5021012;28;20195;-64
2022/01/24 13:47:28;;;;;;;5.87;5.27;;;;;;;;;;5022019;28;20183;-65
2022/01/24 13:49:54;;;;;;;8.73;5.77;;;;;;;;;;5022953;28;20202;-66
2022/01/24 13:52:21;;;;;;;13.37;7.37;;;;;;;;;;5021401;28;20246;-64
2022/01/24 13:54:47;;;;;;;11.40;7.70;;;;;;;;;;5019849;28;20697;-64
2022/01/24 13:57:19;;;;;;;10.57;8.30;;;;;;;;;;5018484;28;20207;-63
2022/01/24 13:59:45;;;;;;;9.03;6.63;;;;;;;;;;5018656;28;20180;-65
2022/01/24 14:02:22;;;;;;;8.63;7.73;;;;;;;;;;5019772;28;20229;-65
2022/01/24 14:04:49;;;;;;;8.27;5.97;;;;;;;;;;5020410;28;20655;-64
2022/01/24 14:07:23;;;;;;;9.20;7.20;;;;;;;;;;5019775;28;20318;-65
2022/01/24 14:09:50;;;;;;;11.73;8.57;;;;;;;;;;5018146;28;20205;-65
2022/01/24 14:12:18;;;;;;;10.83;9.27;;;;;;;;;;5018331;28;20230;-65
2022/01/24 14:14:59;;;;;;;13.77;10.90;;;;;;;;;;5019244;28;20172;-65
2022/01/24 14:17:34;;;;;;;9.03;7.77;;;;;;;;;;5018321;28;20240;-64
2022/01/24 14:20:03;;;;;;;10.30;7.57;;;;;;;;;;5019986;28;20631;-64
2022/01/24 14:22:44;;;;;;;9.47;8.53;;;;;;;;;;5019616;28;20230;-64
2022/01/24 14:25:14;;;;;;;11.43;10.23;;;;;;;;;;5018929;28;20183;-64
2022/01/24 14:27:51;;;;;;;11.00;9.20;;;;;;;;;;5019752;28;20184;-64
2022/01/24 14:30:21;;;;;;;11.77;10.00;;;;;;;;;;5018330;28;20183;-66
2022/01/24 14:32:59;;;;;;;9.03;7.70;;;;;;;;;;5019091;28;20208;-65
2022/01/24 14:35:26;;;;;;;8.17;6.93;;;;;;;;;;5019350;28;20655;-63
2022/01/24 14:37:53;;;;;;;9.27;6.40;;;;;;;;;;5019265;28;20180;-66
2022/01/24 14:40:44;;;;;;;9.97;7.70;;;;;;;;;;5019269;28;20179;-65
2022/01/24 14:45:54;;;;;;;13.63;6.07;;;;;;;;;;5020368;28;20175;-64
2022/01/24 14:48:20;;;;;;;8.40;6.70;;;;;;;;;;5018657;28;20176;-64
2022/01/24 14:50:46;;;;;;;9.40;5.67;;;;;;;;;;5016885;28;20679;-65
2022/01/24 14:53:16;;;;;;;6.50;5.83;;;;;;;;;;5017560;28;20602;-65
2022/01/24 14:55:42;;;;;;;5.53;5.03;;;;;;;;;;5018444;28;20613;-66
2022/01/24 14:58:07;;;;;;;7.23;5.47;;;;;;;;;;5018633;28;20235;-65
2022/01/24 15:00:33;;;;;;;6.83;5.37;;;;;;;;;;5016369;28;20550;-65
2022/01/24 15:03:00;;;;;;;6.27;5.63;;;;;;;;;;5016607;28;20575;-63
2022/01/24 15:05:26;;;;;;;7.07;5.40;;;;;;;;;;5017414;28;20184;-65
2022/01/24 15:07:52;;;;;;;9.97;7.43;;;;;;;;;;5016757;28;20652;-65
2022/01/24 15:10:18;;;;;;;10.57;6.20;;;;;;;;;;5017448;28;20218;-66
2022/01/24 15:12:50;;;;;;;7.77;5.70;;;;;;;;;;5015763;28;20207;-64
2022/01/24 15:15:18;;;;;;;6.53;4.67;;;;;;;;;;5017017;28;20159;-65
2022/01/24 15:25:58;;;;;;;6.40;5.80;;;;;;;;;;5020789;28;20208;-64
2022/01/24 15:28:24;;;;;;;7.77;5.27;;;;;;;;;;5019748;28;20546;-67
2022/01/24 15:30:50;;;;;;;11.17;7.23;;;;;;;;;;5017644;28;20190;-65
2022/01/24 15:33:16;;;;;;;8.37;5.57;;;;;;;;;;5018441;28;20203;-66
2022/01/24 15:35:42;;;;;;;8.83;5.97;;;;;;;;;;5016750;28;20656;-63
2022/01/24 15:38:08;;;;;;;10.03;5.97;;;;;;;;;;5017572;28;20262;-66
2022/01/24 15:40:36;;;;;;;10.13;6.70;;;;;;;;;;5018133;28;20187;-65
2022/01/24 15:46:00;;;;;;;6.93;6.10;;;;;;;;;;4997358;28;20192;-65
2022/01/24 15:48:26;;;;;;;7.43;6.60;;;;;;;;;;5017154;28;20176;-65
2022/01/24 15:50:52;;;;;;;6.93;5.90;;;;;;;;;;5017654;28;20211;-65
2022/01/24 15:53:18;;;;;;;7.80;5.73;;;;;;;;;;5017225;28;20224;-66
2022/01/24 15:56:13;;;;;;;7.80;6.73;;;;;;;;;;5018294;28;20200;-64
2022/01/24 15:58:36;;;;;;;13.00;10.93;;;;;;;;;;5018278;28;20184;-64
2022/01/24 16:01:02;;;;;;;8.20;7.20;;;;;;;;;;5017149;28;20180;-64
2022/01/24 16:03:28;;;;;;;11.10;9.17;;;;;;;;;;5017118;28;20203;-65
2022/01/24 16:05:54;;;;;;;9.30;7.83;;;;;;;;;;5016695;28;20556;-63
2022/01/24 16:08:22;;;;;;;8.23;7.30;;;;;;;;;;5017022;28;20319;-65
2022/01/24 16:10:48;;;;;;;8.37;6.77;;;;;;;;;;5017259;28;20176;-65
2022/01/24 16:13:14;;;;;;;9.33;7.87;;;;;;;;;;5017031;28;20286;-65
2022/01/24 16:15:41;;;;;;;36.67;24.27;;;;;;;;;;5017186;28;20180;-65
2022/01/24 16:18:12;;;;;;;23.57;15.10;;;;;;;;;;5015141;28;20569;-65
2022/01/24 16:23:26;;;;;;;13.33;9.00;;;;;;;;;;5016892;28;20290;-65
2022/01/24 16:25:54;;;;;;;13.83;9.50;;;;;;;;;;5018813;28;20243;-64
2022/01/24 16:28:23;;;;;;;11.03;8.20;;;;;;;;;;5020451;28;20262;-63
2022/01/24 16:30:51;;;;;;;9.83;8.27;;;;;;;;;;5020261;28;20184;-64
2022/01/24 16:33:18;;;;;;;11.17;8.57;;;;;;;;;;5020588;28;20274;-63
2022/01/24 16:35:44;;;;;;;11.23;8.23;;;;;;;;;;5021079;28;20179;-65
2022/01/24 16:38:12;;;;;;;12.17;8.13;;;;;;;;;;5019451;28;20662;-64
2022/01/24 16:48:40;;;;;;;12.97;9.03;;;;;;;;;;5021224;28;20206;-65
2022/01/24 16:51:07;;;;;;;11.13;9.23;;;;;;;;;;5020179;28;20180;-66
2022/01/24 16:53:33;;;;;;;12.13;10.80;;;;;;;;;;5020027;28;20219;-68
2022/01/24 16:56:00;;;;;;;12.33;10.63;;;;;;;;;;5019393;28;20184;-64
2022/01/24 16:58:27;;;;;;;17.60;13.47;;;;;;;;;;5018738;28;20180;-63
2022/01/24 17:00:53;;;;;;;17.10;12.97;;;;;;;;;;5018741;28;20186;-64